Current Weather

Yakutsk

Yakutsk, Russia (UEEE)

Report from: Sunday, February 5, 2023 1:00 PM JST
Current time: Sunday, February 5, 2023 1:37 PM JST

Nearby weather
Weather history
Weather forecast

Present weatherFog
Temperature-39.0°C (-38.2°F)
Dew point-43.0°C (-45.4°F)
Winds 1.9 kts (1 m/s, 2.2 mph) South-Southeast (150°)
Visibility0.3 mi. (0.6 km)
Clouds Ceiling: Vertical visibility 400 ft. (122 m)
Altimeter30.09 in.Hg (1019 mB)
Precip. events QB 2:00 PM
QF 12:35 AM
Relative humidity65 %
Density altitude-7,448 ft. (-2,270 m)
Remarks No significant changes expected in the next two hours
Flight conditions Low Instrument Meteorological Conditions
Raw dataUEEE 050400Z 15001MPS 0550 0450NE R23L/0550U FG VV004 M39/M43 Q1019 R23L/490150 NOSIG RMK QBB120 QFE755
An unhandled exception has occurred. See browser dev tools for details. Reload 🗙